sensor_id;sensor_type;location;lat;lon;timestamp;temperature;humidity
5011;DHT22;2524;54.364;10.072;2023-08-06T00:01:48;17.50;99.90
5011;DHT22;2524;54.364;10.072;2023-08-06T00:04:14;17.40;99.90
5011;DHT22;2524;54.364;10.072;2023-08-06T00:06:39;17.40;99.90
5011;DHT22;2524;54.364;10.072;2023-08-06T00:09:05;17.40;99.90
5011;DHT22;2524;54.364;10.072;2023-08-06T00:11:31;17.40;99.90
5011;DHT22;2524;54.364;10.072;2023-08-06T00:13:56;17.40;99.90
5011;DHT22;2524;54.364;10.072;2023-08-06T00:16:22;17.50;99.90
5011;DHT22;2524;54.364;10.072;2023-08-06T00:18:48;17.40;99.90
5011;DHT22;2524;54.364;10.072;2023-08-06T00:21:13;17.40;99.90
5011;DHT22;2524;54.364;10.072;2023-08-06T00:23:40;17.40;99.90
5011;DHT22;2524;54.364;10.072;2023-08-06T00:26:05;17.40;99.90
5011;DHT22;2524;54.364;10.072;2023-08-06T00:28:31;17.40;99.90
5011;DHT22;2524;54.364;10.072;2023-08-06T00:30:57;17.40;99.90
5011;DHT22;2524;54.364;10.072;2023-08-06T00:33:23;17.40;99.90
5011;DHT22;2524;54.364;10.072;2023-08-06T00:35:49;17.40;99.90
5011;DHT22;2524;54.364;10.072;2023-08-06T00:38:15;17.40;99.90
5011;DHT22;2524;54.364;10.072;2023-08-06T00:40:40;17.40;99.90
5011;DHT22;2524;54.364;10.072;2023-08-06T00:43:06;17.40;99.90
5011;DHT22;2524;54.364;10.072;2023-08-06T00:45:34;17.40;99.90
5011;DHT22;2524;54.364;10.072;2023-08-06T00:48:01;17.40;99.90
5011;DHT22;2524;54.364;10.072;2023-08-06T00:50:27;17.30;99.90
5011;DHT22;2524;54.364;10.072;2023-08-06T00:52:53;17.40;99.90
5011;DHT22;2524;54.364;10.072;2023-08-06T00:55:19;17.30;99.90
5011;DHT22;2524;54.364;10.072;2023-08-06T00:57:45;17.30;99.90
5011;DHT22;2524;54.364;10.072;2023-08-06T01:00:11;17.40;99.90
5011;DHT22;2524;54.364;10.072;2023-08-06T01:02:37;17.40;99.90
5011;DHT22;2524;54.364;10.072;2023-08-06T01:05:03;17.40;99.90
5011;DHT22;2524;54.364;10.072;2023-08-06T01:10:01;17.40;99.90
5011;DHT22;2524;54.364;10.072;2023-08-06T01:12:55;17.40;99.90
5011;DHT22;2524;54.364;10.072;2023-08-06T01:15:30;17.40;99.90
5011;DHT22;2524;54.364;10.072;2023-08-06T01:17:57;17.40;99.90
5011;DHT22;2524;54.364;10.072;2023-08-06T01:20:28;17.30;99.90
5011;DHT22;2524;54.364;10.072;2023-08-06T01:22:53;17.20;99.90
5011;DHT22;2524;54.364;10.072;2023-08-06T01:25:19;17.30;99.90
5011;DHT22;2524;54.364;10.072;2023-08-06T01:27:48;17.30;99.90
5011;DHT22;2524;54.364;10.072;2023-08-06T01:30:27;17.20;99.90
5011;DHT22;2524;54.364;10.072;2023-08-06T01:32:58;17.30;99.90
5011;DHT22;2524;54.364;10.072;2023-08-06T01:35:27;17.20;99.90
5011;DHT22;2524;54.364;10.072;2023-08-06T01:37:54;17.20;99.90
5011;DHT22;2524;54.364;10.072;2023-08-06T01:40:21;17.20;99.90
5011;DHT22;2524;54.364;10.072;2023-08-06T01:42:47;17.20;99.90
5011;DHT22;2524;54.364;10.072;2023-08-06T01:45:13;17.30;99.90
5011;DHT22;2524;54.364;10.072;2023-08-06T01:47:39;17.20;99.90
5011;DHT22;2524;54.364;10.072;2023-08-06T01:50:05;17.30;99.90
5011;DHT22;2524;54.364;10.072;2023-08-06T01:52:30;17.30;99.90
5011;DHT22;2524;54.364;10.072;2023-08-06T01:54:56;17.20;99.90
5011;DHT22;2524;54.364;10.072;2023-08-06T01:57:22;17.30;99.90
5011;DHT22;2524;54.364;10.072;2023-08-06T01:59:47;17.20;99.90
5011;DHT22;2524;54.364;10.072;2023-08-06T02:02:13;17.20;99.90
5011;DHT22;2524;54.364;10.072;2023-08-06T02:04:38;17.30;99.90
5011;DHT22;2524;54.364;10.072;2023-08-06T02:07:04;17.20;99.90
5011;DHT22;2524;54.364;10.072;2023-08-06T02:09:30;17.20;99.90
5011;DHT22;2524;54.364;10.072;2023-08-06T02:11:55;17.10;99.90
5011;DHT22;2524;54.364;10.072;2023-08-06T02:14:21;17.10;99.90
5011;DHT22;2524;54.364;10.072;2023-08-06T02:16:46;17.20;99.90
5011;DHT22;2524;54.364;10.072;2023-08-06T02:19:12;17.20;99.90
5011;DHT22;2524;54.364;10.072;2023-08-06T02:21:37;17.10;99.90
5011;DHT22;2524;54.364;10.072;2023-08-06T02:24:03;17.10;99.90
5011;DHT22;2524;54.364;10.072;2023-08-06T02:26:29;17.10;99.90
5011;DHT22;2524;54.364;10.072;2023-08-06T02:28:54;17.20;99.90
5011;DHT22;2524;54.364;10.072;2023-08-06T02:31:20;17.20;99.90
5011;DHT22;2524;54.364;10.072;2023-08-06T02:33:45;17.10;99.90
5011;DHT22;2524;54.364;10.072;2023-08-06T02:36:11;17.00;99.90
5011;DHT22;2524;54.364;10.072;2023-08-06T02:38:36;17.10;99.90
5011;DHT22;2524;54.364;10.072;2023-08-06T02:41:02;17.00;99.90
5011;DHT22;2524;54.364;10.072;2023-08-06T02:43:29;17.10;99.90
5011;DHT22;2524;54.364;10.072;2023-08-06T02:45:57;17.00;99.90
5011;DHT22;2524;54.364;10.072;2023-08-06T02:48:23;17.00;99.90
5011;DHT22;2524;54.364;10.072;2023-08-06T02:50:48;17.00;99.90
5011;DHT22;2524;54.364;10.072;2023-08-06T02:53:14;17.00;99.90
5011;DHT22;2524;54.364;10.072;2023-08-06T02:55:46;17.00;99.90
5011;DHT22;2524;54.364;10.072;2023-08-06T02:58:13;17.00;99.90
5011;DHT22;2524;54.364;10.072;2023-08-06T03:00:39;16.90;99.90
5011;DHT22;2524;54.364;10.072;2023-08-06T03:03:04;17.00;99.90
5011;DHT22;2524;54.364;10.072;2023-08-06T03:05:30;16.90;99.90
5011;DHT22;2524;54.364;10.072;2023-08-06T03:07:55;16.90;99.90
5011;DHT22;2524;54.364;10.072;2023-08-06T03:10:21;16.90;99.90
5011;DHT22;2524;54.364;10.072;2023-08-06T03:12:46;16.80;99.90
5011;DHT22;2524;54.364;10.072;2023-08-06T03:15:12;16.90;99.90
5011;DHT22;2524;54.364;10.072;2023-08-06T03:17:38;16.90;99.90
5011;DHT22;2524;54.364;10.072;2023-08-06T03:20:04;16.90;99.90
5011;DHT22;2524;54.364;10.072;2023-08-06T03:22:30;16.90;99.90
5011;DHT22;2524;54.364;10.072;2023-08-06T03:24:55;16.90;99.90
5011;DHT22;2524;54.364;10.072;2023-08-06T03:27:21;16.90;99.90
5011;DHT22;2524;54.364;10.072;2023-08-06T03:29:49;17.00;99.90
5011;DHT22;2524;54.364;10.072;2023-08-06T03:32:15;16.90;99.90
5011;DHT22;2524;54.364;10.072;2023-08-06T03:34:41;16.90;99.90
5011;DHT22;2524;54.364;10.072;2023-08-06T03:37:06;16.90;99.90
5011;DHT22;2524;54.364;10.072;2023-08-06T03:39:32;16.90;99.90
5011;DHT22;2524;54.364;10.072;2023-08-06T03:41:57;16.80;99.90
5011;DHT22;2524;54.364;10.072;2023-08-06T03:44:23;16.90;99.90
5011;DHT22;2524;54.364;10.072;2023-08-06T03:46:48;16.80;99.90
5011;DHT22;2524;54.364;10.072;2023-08-06T03:49:14;16.80;99.90
5011;DHT22;2524;54.364;10.072;2023-08-06T03:51:39;16.80;99.90
5011;DHT22;2524;54.364;10.072;2023-08-06T03:54:05;16.90;99.90
5011;DHT22;2524;54.364;10.072;2023-08-06T03:56:30;16.80;99.90
5011;DHT22;2524;54.364;10.072;2023-08-06T03:58:56;16.90;99.90
5011;DHT22;2524;54.364;10.072;2023-08-06T04:01:22;16.80;99.90
5011;DHT22;2524;54.364;10.072;2023-08-06T04:03:47;16.80;99.90
5011;DHT22;2524;54.364;10.072;2023-08-06T04:06:13;16.70;99.90
5011;DHT22;2524;54.364;10.072;2023-08-06T04:08:38;16.70;99.90
5011;DHT22;2524;54.364;10.072;2023-08-06T04:11:04;16.70;99.90
5011;DHT22;2524;54.364;10.072;2023-08-06T04:13:29;16.70;99.90
5011;DHT22;2524;54.364;10.072;2023-08-06T04:15:55;16.70;99.90
5011;DHT22;2524;54.364;10.072;2023-08-06T04:18:21;16.70;99.90
5011;DHT22;2524;54.364;10.072;2023-08-06T04:20:46;16.70;99.90
5011;DHT22;2524;54.364;10.072;2023-08-06T04:23:13;16.60;99.90
5011;DHT22;2524;54.364;10.072;2023-08-06T04:25:39;16.60;99.90
5011;DHT22;2524;54.364;10.072;2023-08-06T04:28:04;16.60;99.90
5011;DHT22;2524;54.364;10.072;2023-08-06T04:30:30;16.60;99.90
5011;DHT22;2524;54.364;10.072;2023-08-06T04:32:59;16.60;99.90
5011;DHT22;2524;54.364;10.072;2023-08-06T04:35:24;16.60;99.90
5011;DHT22;2524;54.364;10.072;2023-08-06T04:37:50;16.60;99.90
5011;DHT22;2524;54.364;10.072;2023-08-06T04:40:15;16.60;99.90
5011;DHT22;2524;54.364;10.072;2023-08-06T04:42:41;16.60;99.90
5011;DHT22;2524;54.364;10.072;2023-08-06T04:45:07;16.60;99.90
5011;DHT22;2524;54.364;10.072;2023-08-06T04:47:32;16.60;99.90
5011;DHT22;2524;54.364;10.072;2023-08-06T04:49:58;16.70;99.90
5011;DHT22;2524;54.364;10.072;2023-08-06T04:52:24;16.60;99.90
5011;DHT22;2524;54.364;10.072;2023-08-06T04:54:53;16.70;99.90
5011;DHT22;2524;54.364;10.072;2023-08-06T04:57:18;16.60;99.90
5011;DHT22;2524;54.364;10.072;2023-08-06T04:59:44;16.70;99.90
5011;DHT22;2524;54.364;10.072;2023-08-06T05:02:09;16.70;99.90
5011;DHT22;2524;54.364;10.072;2023-08-06T05:04:35;16.70;99.90
5011;DHT22;2524;54.364;10.072;2023-08-06T05:07:00;16.70;99.90
5011;DHT22;2524;54.364;10.072;2023-08-06T05:09:26;16.70;99.90
5011;DHT22;2524;54.364;10.072;2023-08-06T05:11:51;16.70;99.90
5011;DHT22;2524;54.364;10.072;2023-08-06T05:14:17;16.70;99.90
5011;DHT22;2524;54.364;10.072;2023-08-06T05:16:42;16.70;99.90
5011;DHT22;2524;54.364;10.072;2023-08-06T05:19:08;16.70;99.90
5011;DHT22;2524;54.364;10.072;2023-08-06T05:21:33;16.70;99.90
5011;DHT22;2524;54.364;10.072;2023-08-06T05:23:59;16.70;99.90
5011;DHT22;2524;54.364;10.072;2023-08-06T05:26:25;16.80;99.90
5011;DHT22;2524;54.364;10.072;2023-08-06T05:28:50;16.70;99.90
5011;DHT22;2524;54.364;10.072;2023-08-06T05:31:16;16.80;99.90
5011;DHT22;2524;54.364;10.072;2023-08-06T05:33:41;16.80;99.90
5011;DHT22;2524;54.364;10.072;2023-08-06T05:36:07;16.80;99.90
5011;DHT22;2524;54.364;10.072;2023-08-06T05:38:32;16.90;99.90
5011;DHT22;2524;54.364;10.072;2023-08-06T05:40:58;16.90;99.90
5011;DHT22;2524;54.364;10.072;2023-08-06T05:43:23;17.00;99.90
5011;DHT22;2524;54.364;10.072;2023-08-06T05:45:50;16.90;99.90
5011;DHT22;2524;54.364;10.072;2023-08-06T05:48:16;16.90;99.90
5011;DHT22;2524;54.364;10.072;2023-08-06T05:50:41;16.90;99.90
5011;DHT22;2524;54.364;10.072;2023-08-06T05:53:07;17.00;99.90
5011;DHT22;2524;54.364;10.072;2023-08-06T05:55:33;16.90;99.90
5011;DHT22;2524;54.364;10.072;2023-08-06T05:57:59;17.00;99.90
5011;DHT22;2524;54.364;10.072;2023-08-06T06:00:24;17.00;99.90
5011;DHT22;2524;54.364;10.072;2023-08-06T06:02:50;17.00;99.90
5011;DHT22;2524;54.364;10.072;2023-08-06T06:05:15;17.00;99.90
5011;DHT22;2524;54.364;10.072;2023-08-06T06:07:41;17.00;99.90
5011;DHT22;2524;54.364;10.072;2023-08-06T06:10:07;17.10;99.90
5011;DHT22;2524;54.364;10.072;2023-08-06T06:12:33;17.00;99.90
5011;DHT22;2524;54.364;10.072;2023-08-06T06:14:58;17.00;99.90
5011;DHT22;2524;54.364;10.072;2023-08-06T06:17:29;17.10;99.90
5011;DHT22;2524;54.364;10.072;2023-08-06T06:19:54;17.10;99.90
5011;DHT22;2524;54.364;10.072;2023-08-06T06:22:20;17.00;99.90
5011;DHT22;2524;54.364;10.072;2023-08-06T06:24:45;17.00;99.90
5011;DHT22;2524;54.364;10.072;2023-08-06T06:27:11;17.00;99.90
5011;DHT22;2524;54.364;10.072;2023-08-06T06:29:37;17.20;99.90
5011;DHT22;2524;54.364;10.072;2023-08-06T06:32:02;17.10;99.90
5011;DHT22;2524;54.364;10.072;2023-08-06T06:34:28;17.10;99.90
5011;DHT22;2524;54.364;10.072;2023-08-06T06:36:54;17.10;99.90
5011;DHT22;2524;54.364;10.072;2023-08-06T06:39:20;17.10;99.90
5011;DHT22;2524;54.364;10.072;2023-08-06T06:41:46;17.20;99.90
5011;DHT22;2524;54.364;10.072;2023-08-06T06:44:11;17.10;99.90
5011;DHT22;2524;54.364;10.072;2023-08-06T06:46:37;17.10;99.90
5011;DHT22;2524;54.364;10.072;2023-08-06T06:49:02;17.10;99.90
5011;DHT22;2524;54.364;10.072;2023-08-06T06:51:28;17.10;99.90
5011;DHT22;2524;54.364;10.072;2023-08-06T06:53:53;17.10;99.90
5011;DHT22;2524;54.364;10.072;2023-08-06T06:56:19;17.10;99.90
5011;DHT22;2524;54.364;10.072;2023-08-06T06:58:44;17.20;99.90
5011;DHT22;2524;54.364;10.072;2023-08-06T07:01:10;17.10;99.90
5011;DHT22;2524;54.364;10.072;2023-08-06T07:03:37;17.10;99.90
5011;DHT22;2524;54.364;10.072;2023-08-06T07:06:02;17.20;99.90
5011;DHT22;2524;54.364;10.072;2023-08-06T07:08:29;17.00;99.90
5011;DHT22;2524;54.364;10.072;2023-08-06T07:11:04;17.10;99.90
5011;DHT22;2524;54.364;10.072;2023-08-06T07:13:31;17.10;99.90
5011;DHT22;2524;54.364;10.072;2023-08-06T07:15:57;17.10;99.90
5011;DHT22;2524;54.364;10.072;2023-08-06T07:18:23;17.10;99.90
5011;DHT22;2524;54.364;10.072;2023-08-06T07:20:53;17.20;99.90
5011;DHT22;2524;54.364;10.072;2023-08-06T07:23:23;17.20;99.90
5011;DHT22;2524;54.364;10.072;2023-08-06T07:25:50;17.20;99.90
5011;DHT22;2524;54.364;10.072;2023-08-06T07:28:16;17.20;99.90
5011;DHT22;2524;54.364;10.072;2023-08-06T07:30:42;17.20;99.90
5011;DHT22;2524;54.364;10.072;2023-08-06T07:33:08;17.30;99.90
5011;DHT22;2524;54.364;10.072;2023-08-06T07:35:34;17.20;99.90
5011;DHT22;2524;54.364;10.072;2023-08-06T07:38:00;17.30;99.90
5011;DHT22;2524;54.364;10.072;2023-08-06T07:40:26;17.30;99.90
5011;DHT22;2524;54.364;10.072;2023-08-06T07:42:51;17.30;99.90
5011;DHT22;2524;54.364;10.072;2023-08-06T07:45:17;17.30;99.90
5011;DHT22;2524;54.364;10.072;2023-08-06T07:47:43;17.30;99.90
5011;DHT22;2524;54.364;10.072;2023-08-06T07:50:09;17.30;99.90
5011;DHT22;2524;54.364;10.072;2023-08-06T07:52:35;17.30;99.90
5011;DHT22;2524;54.364;10.072;2023-08-06T07:55:01;17.30;99.90
5011;DHT22;2524;54.364;10.072;2023-08-06T07:57:33;17.30;99.90
5011;DHT22;2524;54.364;10.072;2023-08-06T08:00:00;17.30;99.90
5011;DHT22;2524;54.364;10.072;2023-08-06T08:02:25;17.40;99.90
5011;DHT22;2524;54.364;10.072;2023-08-06T08:04:51;17.40;99.90
5011;DHT22;2524;54.364;10.072;2023-08-06T08:07:16;17.40;99.90
5011;DHT22;2524;54.364;10.072;2023-08-06T08:09:42;17.50;99.90
5011;DHT22;2524;54.364;10.072;2023-08-06T08:12:08;17.40;99.90
5011;DHT22;2524;54.364;10.072;2023-08-06T08:14:33;17.40;99.90
5011;DHT22;2524;54.364;10.072;2023-08-06T08:17:04;17.40;99.90
5011;DHT22;2524;54.364;10.072;2023-08-06T08:19:31;17.40;99.90
5011;DHT22;2524;54.364;10.072;2023-08-06T08:21:56;17.50;99.90
5011;DHT22;2524;54.364;10.072;2023-08-06T08:24:23;17.40;99.90
5011;DHT22;2524;54.364;10.072;2023-08-06T08:26:54;17.50;99.90
5011;DHT22;2524;54.364;10.072;2023-08-06T08:29:20;17.50;99.90
5011;DHT22;2524;54.364;10.072;2023-08-06T08:31:46;17.50;99.90
5011;DHT22;2524;54.364;10.072;2023-08-06T08:34:15;17.50;99.90
5011;DHT22;2524;54.364;10.072;2023-08-06T08:36:40;17.60;99.90
5011;DHT22;2524;54.364;10.072;2023-08-06T08:39:06;17.60;99.90
5011;DHT22;2524;54.364;10.072;2023-08-06T08:41:32;17.60;99.90
5011;DHT22;2524;54.364;10.072;2023-08-06T08:43:59;17.60;99.90
5011;DHT22;2524;54.364;10.072;2023-08-06T08:46:30;17.60;99.90
5011;DHT22;2524;54.364;10.072;2023-08-06T08:48:59;17.60;99.90
5011;DHT22;2524;54.364;10.072;2023-08-06T08:51:27;17.70;99.90
5011;DHT22;2524;54.364;10.072;2023-08-06T08:53:53;17.60;99.90
5011;DHT22;2524;54.364;10.072;2023-08-06T08:56:22;17.70;99.90
5011;DHT22;2524;54.364;10.072;2023-08-06T08:58:47;17.70;99.90
5011;DHT22;2524;54.364;10.072;2023-08-06T09:01:15;17.70;99.90
5011;DHT22;2524;54.364;10.072;2023-08-06T09:03:41;17.70;99.90
5011;DHT22;2524;54.364;10.072;2023-08-06T09:06:08;17.70;99.90
5011;DHT22;2524;54.364;10.072;2023-08-06T09:08:39;17.80;99.90
5011;DHT22;2524;54.364;10.072;2023-08-06T09:11:09;17.80;99.90
5011;DHT22;2524;54.364;10.072;2023-08-06T09:13:37;17.90;99.90
5011;DHT22;2524;54.364;10.072;2023-08-06T09:16:03;17.90;99.90
5011;DHT22;2524;54.364;10.072;2023-08-06T09:18:30;18.00;99.90
5011;DHT22;2524;54.364;10.072;2023-08-06T09:20:56;18.10;99.90
5011;DHT22;2524;54.364;10.072;2023-08-06T09:23:28;18.10;99.90
5011;DHT22;2524;54.364;10.072;2023-08-06T09:25:55;18.20;99.90
5011;DHT22;2524;54.364;10.072;2023-08-06T09:28:21;18.20;99.90
5011;DHT22;2524;54.364;10.072;2023-08-06T09:33:18;18.20;99.90
5011;DHT22;2524;54.364;10.072;2023-08-06T09:35:46;18.30;99.90
5011;DHT22;2524;54.364;10.072;2023-08-06T09:38:12;18.30;99.90
5011;DHT22;2524;54.364;10.072;2023-08-06T09:40:39;18.40;99.90
5011;DHT22;2524;54.364;10.072;2023-08-06T09:43:05;18.40;99.90
5011;DHT22;2524;54.364;10.072;2023-08-06T09:45:35;18.40;99.90
5011;DHT22;2524;54.364;10.072;2023-08-06T09:48:05;18.40;99.90
5011;DHT22;2524;54.364;10.072;2023-08-06T09:50:34;18.40;99.90
5011;DHT22;2524;54.364;10.072;2023-08-06T09:53:07;18.50;99.90
5011;DHT22;2524;54.364;10.072;2023-08-06T09:55:35;18.40;99.90
5011;DHT22;2524;54.364;10.072;2023-08-06T09:58:02;18.40;99.90
5011;DHT22;2524;54.364;10.072;2023-08-06T10:00:28;18.50;99.90
5011;DHT22;2524;54.364;10.072;2023-08-06T10:02:55;18.50;99.90
5011;DHT22;2524;54.364;10.072;2023-08-06T10:05:24;18.60;99.90
5011;DHT22;2524;54.364;10.072;2023-08-06T10:07:50;18.50;99.90
5011;DHT22;2524;54.364;10.072;2023-08-06T10:10:16;18.50;99.90
5011;DHT22;2524;54.364;10.072;2023-08-06T10:12:49;18.50;99.90
5011;DHT22;2524;54.364;10.072;2023-08-06T10:15:17;18.50;99.90
5011;DHT22;2524;54.364;10.072;2023-08-06T10:17:47;18.50;99.90
5011;DHT22;2524;54.364;10.072;2023-08-06T10:20:15;18.60;99.90
5011;DHT22;2524;54.364;10.072;2023-08-06T10:22:44;18.60;99.90
5011;DHT22;2524;54.364;10.072;2023-08-06T10:25:10;18.50;99.90
5011;DHT22;2524;54.364;10.072;2023-08-06T10:30:30;18.60;99.90
5011;DHT22;2524;54.364;10.072;2023-08-06T10:33:03;18.60;99.90
5011;DHT22;2524;54.364;10.072;2023-08-06T10:35:45;18.60;99.90
5011;DHT22;2524;54.364;10.072;2023-08-06T10:38:21;18.70;99.90
5011;DHT22;2524;54.364;10.072;2023-08-06T10:43:32;18.70;99.90
5011;DHT22;2524;54.364;10.072;2023-08-06T10:45:59;18.70;99.90
5011;DHT22;2524;54.364;10.072;2023-08-06T10:48:34;18.70;99.90
5011;DHT22;2524;54.364;10.072;2023-08-06T10:51:02;18.70;99.90
5011;DHT22;2524;54.364;10.072;2023-08-06T10:53:30;18.80;99.90
5011;DHT22;2524;54.364;10.072;2023-08-06T10:55:55;18.80;99.90
5011;DHT22;2524;54.364;10.072;2023-08-06T10:58:21;18.80;99.90
5011;DHT22;2524;54.364;10.072;2023-08-06T11:00:46;18.90;99.90
5011;DHT22;2524;54.364;10.072;2023-08-06T11:03:12;18.90;99.90
5011;DHT22;2524;54.364;10.072;2023-08-06T11:05:38;18.90;99.90
5011;DHT22;2524;54.364;10.072;2023-08-06T11:08:04;18.90;99.90
5011;DHT22;2524;54.364;10.072;2023-08-06T11:10:33;18.90;99.90
5011;DHT22;2524;54.364;10.072;2023-08-06T11:13:03;18.90;99.90
5011;DHT22;2524;54.364;10.072;2023-08-06T11:15:30;18.90;99.90
5011;DHT22;2524;54.364;10.072;2023-08-06T11:17:56;19.00;99.90
5011;DHT22;2524;54.364;10.072;2023-08-06T11:20:21;19.00;99.90
5011;DHT22;2524;54.364;10.072;2023-08-06T11:22:48;19.00;99.90
5011;DHT22;2524;54.364;10.072;2023-08-06T11:25:13;19.20;99.90
5011;DHT22;2524;54.364;10.072;2023-08-06T11:27:39;19.20;99.90
5011;DHT22;2524;54.364;10.072;2023-08-06T11:30:05;19.20;99.90
5011;DHT22;2524;54.364;10.072;2023-08-06T11:32:30;19.20;99.90
5011;DHT22;2524;54.364;10.072;2023-08-06T11:34:56;19.20;99.90
5011;DHT22;2524;54.364;10.072;2023-08-06T11:37:22;19.30;99.90
5011;DHT22;2524;54.364;10.072;2023-08-06T11:39:49;19.50;99.90
5011;DHT22;2524;54.364;10.072;2023-08-06T11:42:15;19.60;99.90
5011;DHT22;2524;54.364;10.072;2023-08-06T11:44:41;19.60;99.90
5011;DHT22;2524;54.364;10.072;2023-08-06T11:47:16;19.60;99.90
5011;DHT22;2524;54.364;10.072;2023-08-06T11:49:47;19.60;99.90
5011;DHT22;2524;54.364;10.072;2023-08-06T11:52:21;19.70;99.90
5011;DHT22;2524;54.364;10.072;2023-08-06T11:55:02;19.70;99.90
5011;DHT22;2524;54.364;10.072;2023-08-06T11:57:30;19.70;99.90
5011;DHT22;2524;54.364;10.072;2023-08-06T12:00:04;19.70;99.90
5011;DHT22;2524;54.364;10.072;2023-08-06T12:02:32;19.70;99.90
5011;DHT22;2524;54.364;10.072;2023-08-06T12:07:43;19.80;99.90
5011;DHT22;2524;54.364;10.072;2023-08-06T12:10:09;19.80;99.90
5011;DHT22;2524;54.364;10.072;2023-08-06T12:12:35;19.90;99.90
5011;DHT22;2524;54.364;10.072;2023-08-06T12:15:01;20.00;99.90
5011;DHT22;2524;54.364;10.072;2023-08-06T12:17:27;20.00;99.90
5011;DHT22;2524;54.364;10.072;2023-08-06T12:19:53;20.00;99.90
5011;DHT22;2524;54.364;10.072;2023-08-06T12:22:18;20.00;99.90
5011;DHT22;2524;54.364;10.072;2023-08-06T12:24:46;20.10;99.90
5011;DHT22;2524;54.364;10.072;2023-08-06T12:27:12;20.10;99.90
5011;DHT22;2524;54.364;10.072;2023-08-06T12:29:43;20.10;99.90
5011;DHT22;2524;54.364;10.072;2023-08-06T12:32:12;20.10;99.90
5011;DHT22;2524;54.364;10.072;2023-08-06T12:34:41;20.10;99.90
5011;DHT22;2524;54.364;10.072;2023-08-06T12:37:08;20.20;99.90
5011;DHT22;2524;54.364;10.072;2023-08-06T12:39:34;20.10;99.90
5011;DHT22;2524;54.364;10.072;2023-08-06T12:42:01;20.10;99.90
5011;DHT22;2524;54.364;10.072;2023-08-06T12:44:27;20.10;99.90
5011;DHT22;2524;54.364;10.072;2023-08-06T12:46:53;20.10;99.90
5011;DHT22;2524;54.364;10.072;2023-08-06T12:49:19;20.10;99.90
5011;DHT22;2524;54.364;10.072;2023-08-06T12:51:47;20.10;99.90
5011;DHT22;2524;54.364;10.072;2023-08-06T12:54:12;20.10;99.90
5011;DHT22;2524;54.364;10.072;2023-08-06T12:56:38;20.10;99.90
5011;DHT22;2524;54.364;10.072;2023-08-06T12:59:04;20.10;99.90
5011;DHT22;2524;54.364;10.072;2023-08-06T13:01:29;20.20;99.90
5011;DHT22;2524;54.364;10.072;2023-08-06T13:03:55;20.10;99.90
5011;DHT22;2524;54.364;10.072;2023-08-06T13:06:20;20.00;99.90
5011;DHT22;2524;54.364;10.072;2023-08-06T13:08:46;20.00;99.90
5011;DHT22;2524;54.364;10.072;2023-08-06T13:11:11;20.00;99.90
5011;DHT22;2524;54.364;10.072;2023-08-06T13:13:37;20.00;99.90
5011;DHT22;2524;54.364;10.072;2023-08-06T13:16:03;20.00;99.90
5011;DHT22;2524;54.364;10.072;2023-08-06T13:18:28;20.00;99.90
5011;DHT22;2524;54.364;10.072;2023-08-06T13:20:54;20.00;99.90
5011;DHT22;2524;54.364;10.072;2023-08-06T13:23:20;20.00;99.90
5011;DHT22;2524;54.364;10.072;2023-08-06T13:25:46;20.00;99.90
5011;DHT22;2524;54.364;10.072;2023-08-06T13:28:12;20.00;99.90
5011;DHT22;2524;54.364;10.072;2023-08-06T13:30:39;20.00;99.90
5011;DHT22;2524;54.364;10.072;2023-08-06T13:33:10;19.90;99.90
5011;DHT22;2524;54.364;10.072;2023-08-06T13:35:36;19.90;99.90
5011;DHT22;2524;54.364;10.072;2023-08-06T13:38:02;19.90;99.90
5011;DHT22;2524;54.364;10.072;2023-08-06T13:40:32;19.90;99.90
5011;DHT22;2524;54.364;10.072;2023-08-06T13:42:58;20.00;99.90
5011;DHT22;2524;54.364;10.072;2023-08-06T13:45:24;19.90;99.90
5011;DHT22;2524;54.364;10.072;2023-08-06T13:47:49;19.90;99.90
5011;DHT22;2524;54.364;10.072;2023-08-06T13:50:15;19.80;99.90
5011;DHT22;2524;54.364;10.072;2023-08-06T13:52:41;19.80;99.90
5011;DHT22;2524;54.364;10.072;2023-08-06T13:55:07;19.80;99.90
5011;DHT22;2524;54.364;10.072;2023-08-06T13:57:34;19.80;99.90
5011;DHT22;2524;54.364;10.072;2023-08-06T13:59:59;19.90;99.90
5011;DHT22;2524;54.364;10.072;2023-08-06T14:02:25;19.80;99.90
5011;DHT22;2524;54.364;10.072;2023-08-06T14:04:52;19.80;99.90
5011;DHT22;2524;54.364;10.072;2023-08-06T14:07:18;19.90;99.90
5011;DHT22;2524;54.364;10.072;2023-08-06T14:09:44;19.90;99.90
5011;DHT22;2524;54.364;10.072;2023-08-06T14:12:09;20.00;99.90
5011;DHT22;2524;54.364;10.072;2023-08-06T14:14:35;19.90;99.90
5011;DHT22;2524;54.364;10.072;2023-08-06T14:17:01;19.90;99.90
5011;DHT22;2524;54.364;10.072;2023-08-06T14:19:27;20.00;99.90
5011;DHT22;2524;54.364;10.072;2023-08-06T14:21:53;19.90;99.90
5011;DHT22;2524;54.364;10.072;2023-08-06T14:24:19;19.90;99.90
5011;DHT22;2524;54.364;10.072;2023-08-06T14:26:44;19.90;99.90
5011;DHT22;2524;54.364;10.072;2023-08-06T14:29:10;19.80;99.90
5011;DHT22;2524;54.364;10.072;2023-08-06T14:31:41;19.80;99.90
5011;DHT22;2524;54.364;10.072;2023-08-06T14:34:07;19.80;99.90
5011;DHT22;2524;54.364;10.072;2023-08-06T14:36:33;19.80;99.90
5011;DHT22;2524;54.364;10.072;2023-08-06T14:38:58;19.80;99.90
5011;DHT22;2524;54.364;10.072;2023-08-06T14:41:24;19.90;99.90
5011;DHT22;2524;54.364;10.072;2023-08-06T14:43:50;19.90;99.90
5011;DHT22;2524;54.364;10.072;2023-08-06T14:46:15;20.00;99.90
5011;DHT22;2524;54.364;10.072;2023-08-06T14:48:41;19.90;99.90
5011;DHT22;2524;54.364;10.072;2023-08-06T14:51:12;19.90;99.90
5011;DHT22;2524;54.364;10.072;2023-08-06T14:53:40;19.90;99.90
5011;DHT22;2524;54.364;10.072;2023-08-06T14:56:08;20.00;99.90
5011;DHT22;2524;54.364;10.072;2023-08-06T14:58:34;19.90;99.90
5011;DHT22;2524;54.364;10.072;2023-08-06T15:00:59;19.90;99.90
5011;DHT22;2524;54.364;10.072;2023-08-06T15:03:25;19.80;99.90
5011;DHT22;2524;54.364;10.072;2023-08-06T15:05:50;20.00;99.90
5011;DHT22;2524;54.364;10.072;2023-08-06T15:08:17;19.80;99.90
5011;DHT22;2524;54.364;10.072;2023-08-06T15:10:42;19.80;99.90
5011;DHT22;2524;54.364;10.072;2023-08-06T15:13:08;19.80;99.90
5011;DHT22;2524;54.364;10.072;2023-08-06T15:15:33;19.80;99.90
5011;DHT22;2524;54.364;10.072;2023-08-06T15:17:59;19.80;99.90
5011;DHT22;2524;54.364;10.072;2023-08-06T15:20:25;19.90;99.90
5011;DHT22;2524;54.364;10.072;2023-08-06T15:22:50;19.90;99.90
5011;DHT22;2524;54.364;10.072;2023-08-06T15:25:16;19.80;99.90
5011;DHT22;2524;54.364;10.072;2023-08-06T15:27:42;19.80;99.90
5011;DHT22;2524;54.364;10.072;2023-08-06T15:30:07;19.80;99.90
5011;DHT22;2524;54.364;10.072;2023-08-06T15:32:33;19.80;99.90
5011;DHT22;2524;54.364;10.072;2023-08-06T15:34:59;19.80;99.90
5011;DHT22;2524;54.364;10.072;2023-08-06T15:37:24;19.80;99.90
5011;DHT22;2524;54.364;10.072;2023-08-06T15:39:51;19.90;99.90
5011;DHT22;2524;54.364;10.072;2023-08-06T15:42:17;19.70;99.90
5011;DHT22;2524;54.364;10.072;2023-08-06T15:44:43;19.90;99.90
5011;DHT22;2524;54.364;10.072;2023-08-06T15:47:08;19.80;99.90
5011;DHT22;2524;54.364;10.072;2023-08-06T15:49:34;19.80;99.90
5011;DHT22;2524;54.364;10.072;2023-08-06T15:52:00;19.80;99.90
5011;DHT22;2524;54.364;10.072;2023-08-06T15:54:25;19.80;99.90